Clearmont, Missouri
Current Conditions -  °F | °C
As of 6:55 AM on Thursday 27 Nov 2014 (Local Time) from KICL Reporting Station
Clear Clear  
Wind Chill:   Ceiling: Unl
Heat Index: 14°   Visibility: 10mi
Dew Point: 10°   Wind: 6mph
Humidity: 86%   Direction: 10°N
Pressure: 30.53"   Gusts: NA
Location:  40.51°N, 95.03°W
Report Text: KICL 271255Z AUTO 01005KT 10SM CLR M10/M12 A3053 RMK AO2
Loading
Personal Weather Stations






























Interactive Weather Map New forecast layout! Learn more

10-Day Weather Forecast

Advertisements
Track Severe Weather on mobile